createdAt,value
2017-08-23T00:01:01.660Z,11.8
2017-08-23T00:02:04.093Z,11.9
2017-08-23T00:03:06.149Z,11.8
2017-08-23T00:04:08.222Z,11.8
2017-08-23T00:05:10.356Z,11.6
2017-08-23T00:06:12.406Z,11.7
2017-08-23T00:07:14.773Z,11.7
2017-08-23T00:08:16.900Z,11.8
2017-08-23T00:09:18.992Z,11.7
2017-08-23T00:10:21.117Z,11.7
2017-08-23T00:11:23.191Z,11.7
2017-08-23T00:12:25.662Z,11.4
2017-08-23T00:13:27.736Z,11.6
2017-08-23T00:14:29.832Z,11.7
2017-08-23T00:15:31.922Z,11.8
2017-08-23T00:16:34.017Z,11.9
2017-08-23T00:17:36.446Z,11.7
2017-08-23T00:18:38.537Z,11.6
2017-08-23T00:19:40.618Z,11.6
2017-08-23T00:20:42.751Z,11.6
2017-08-23T00:21:44.766Z,11.7
2017-08-23T00:22:47.234Z,11.7
2017-08-23T00:23:49.378Z,11.7
2017-08-23T00:24:51.649Z,11.8
2017-08-23T00:25:53.717Z,11.6
2017-08-23T00:26:55.760Z,11.6
2017-08-23T00:27:58.248Z,11.6
2017-08-23T00:29:00.349Z,11.6
2017-08-23T00:30:02.448Z,11.7
2017-08-23T00:31:04.485Z,11.4
2017-08-23T00:32:06.507Z,11.3
2017-08-23T00:33:08.914Z,11.4
2017-08-23T00:34:10.979Z,11.4
2017-08-23T00:35:13.023Z,11.5
2017-08-23T00:36:15.114Z,11.4
2017-08-23T00:37:17.150Z,11.1
2017-08-23T00:38:19.562Z,11.3
2017-08-23T00:39:21.669Z,11.2
2017-08-23T00:40:23.749Z,11.4
2017-08-23T00:41:25.792Z,11.5
2017-08-23T00:42:27.863Z,11.5
2017-08-23T00:43:30.308Z,11.6
2017-08-23T00:44:32.409Z,11.5
2017-08-23T00:45:34.548Z,11.6
2017-08-23T00:46:36.751Z,11.4
2017-08-23T00:47:38.767Z,11.4
2017-08-23T00:48:41.187Z,11.5
2017-08-23T00:49:43.239Z,11.4
2017-08-23T00:50:45.342Z,11.4
2017-08-23T00:51:47.552Z,11.4
2017-08-23T00:52:49.691Z,11.5
2017-08-23T00:53:52.145Z,11.7
2017-08-23T00:54:54.264Z,11.6
2017-08-23T00:55:56.354Z,11.2
2017-08-23T00:56:58.414Z,11.1
2017-08-23T00:58:00.442Z,11.2
2017-08-23T00:59:02.838Z,11.1
2017-08-23T01:00:04.933Z,11.1
2017-08-23T01:01:06.999Z,11.1
2017-08-23T01:02:09.092Z,11.2
2017-08-23T01:03:11.285Z,11.1
2017-08-23T01:04:13.751Z,11.1
2017-08-23T01:05:15.866Z,11.2
2017-08-23T01:06:17.984Z,11.2
2017-08-23T01:07:20.049Z,11.1
2017-08-23T01:08:22.103Z,11.1
2017-08-23T01:09:24.440Z,11.3
2017-08-23T01:10:26.512Z,11.1
2017-08-23T01:11:28.610Z,11.2
2017-08-23T01:12:30.708Z,11.2
2017-08-23T01:13:32.834Z,11
2017-08-23T01:14:35.250Z,10.9
2017-08-23T01:15:37.335Z,10.9
2017-08-23T01:16:39.405Z,11.1
2017-08-23T01:17:41.502Z,11.1
2017-08-23T01:18:43.639Z,11.1
2017-08-23T01:19:46.040Z,11.1
2017-08-23T01:20:48.085Z,10.8
2017-08-23T01:21:50.161Z,11
2017-08-23T01:22:52.276Z,11
2017-08-23T01:23:54.429Z,11.1
2017-08-23T01:24:56.871Z,11.2
2017-08-23T01:25:58.986Z,11.3
2017-08-23T01:27:01.143Z,11.4
2017-08-23T01:28:03.210Z,11.1
2017-08-23T01:29:05.281Z,11.1
2017-08-23T01:30:07.675Z,10.9
2017-08-23T01:31:09.761Z,10.8
2017-08-23T01:32:11.935Z,10.8
2017-08-23T01:33:14.169Z,11
2017-08-23T01:34:16.253Z,10.9
2017-08-23T01:35:18.606Z,10.9
2017-08-23T01:36:20.691Z,10.9
2017-08-23T01:37:22.774Z,10.9
2017-08-23T01:38:24.881Z,10.9
2017-08-23T01:39:26.974Z,10.8
2017-08-23T01:40:29.475Z,11
2017-08-23T01:41:31.595Z,11.1
2017-08-23T01:42:33.713Z,11.3
2017-08-23T01:43:36.139Z,11.1
2017-08-23T01:44:38.237Z,10.8
2017-08-23T01:45:40.676Z,10.8
2017-08-23T01:46:42.884Z,10.7
2017-08-23T01:47:44.948Z,10.9
2017-08-23T01:48:47.032Z,10.8
2017-08-23T01:49:49.191Z,10.8
2017-08-23T01:50:51.579Z,10.8
2017-08-23T01:51:53.653Z,10.8
2017-08-23T01:52:55.686Z,10.7
2017-08-23T01:53:57.746Z,10.8
2017-08-23T01:54:59.791Z,10.7
2017-08-23T01:56:02.172Z,10.6
2017-08-23T01:57:04.337Z,10.7
2017-08-23T01:58:06.462Z,10.8
2017-08-23T01:59:08.784Z,10.5
2017-08-23T02:00:11.165Z,10.6
2017-08-23T02:01:13.751Z,10.6
2017-08-23T02:02:16.020Z,10.6
2017-08-23T02:03:18.341Z,10.6
2017-08-23T02:04:20.648Z,10.4
2017-08-23T02:05:22.880Z,10.6
2017-08-23T02:06:25.505Z,10.6
2017-08-23T02:07:27.883Z,10.7
2017-08-23T02:09:37.495Z,10.7
2017-08-23T02:10:39.557Z,10.8
2017-08-23T02:11:42.036Z,10.6
2017-08-23T02:12:44.023Z,10.5
2017-08-23T02:13:46.118Z,10.6
2017-08-23T02:14:48.316Z,10.6
2017-08-23T02:15:50.337Z,10.5
2017-08-23T02:16:52.885Z,10.2
2017-08-23T02:17:54.980Z,10.2
2017-08-23T02:18:57.013Z,10.2
2017-08-23T02:19:59.055Z,10.3
2017-08-23T02:21:01.087Z,10.4
2017-08-23T02:22:03.461Z,10.6
2017-08-23T02:23:05.542Z,10.5
2017-08-23T02:24:07.613Z,10.5
2017-08-23T02:25:09.780Z,10.3
2017-08-23T02:26:11.866Z,10.5
2017-08-23T02:27:14.269Z,10.6
2017-08-23T02:28:16.338Z,10.7
2017-08-23T02:29:18.396Z,10.6
2017-08-23T02:30:20.498Z,10.6
2017-08-23T02:31:22.656Z,10.5
2017-08-23T02:32:25.187Z,10.5
2017-08-23T02:33:27.284Z,10.5
2017-08-23T02:34:29.466Z,10.4
2017-08-23T02:35:31.608Z,10.4
2017-08-23T02:36:33.667Z,10.4
2017-08-23T02:37:36.066Z,10.4
2017-08-23T02:38:38.156Z,10.2
2017-08-23T02:39:40.212Z,10
2017-08-23T02:40:42.299Z,10
2017-08-23T02:41:44.350Z,10.1
2017-08-23T02:42:46.701Z,10.3
2017-08-23T02:43:48.777Z,10.3
2017-08-23T02:44:50.832Z,10.5
2017-08-23T02:45:52.930Z,10.3
2017-08-23T02:46:55.061Z,10.3
2017-08-23T02:47:57.645Z,10.3
2017-08-23T02:48:59.702Z,10.3
2017-08-23T02:50:01.727Z,10.3
2017-08-23T02:51:03.800Z,10.4
2017-08-23T02:52:05.844Z,10.5
2017-08-23T02:53:08.205Z,10.6
2017-08-23T02:54:10.242Z,10.6
2017-08-23T02:55:12.338Z,10.3
2017-08-23T02:56:14.405Z,10.3
2017-08-23T02:57:16.467Z,10.4
2017-08-23T02:58:18.842Z,10.4
2017-08-23T02:59:20.937Z,10.5
2017-08-23T03:00:23.046Z,10.4
2017-08-23T03:01:25.127Z,10.1
2017-08-23T03:02:27.200Z,9.9
2017-08-23T03:03:29.788Z,9.5
2017-08-23T03:04:31.853Z,9.9
2017-08-23T03:05:33.873Z,10
2017-08-23T03:06:35.918Z,9.9
2017-08-23T03:07:37.934Z,9.9
2017-08-23T03:08:40.288Z,9.9
2017-08-23T03:09:42.368Z,10
2017-08-23T03:10:44.481Z,9.8
2017-08-23T03:11:46.539Z,9.9
2017-08-23T03:12:48.590Z,10
2017-08-23T03:13:51.033Z,10
2017-08-23T03:14:53.118Z,10
2017-08-23T03:15:55.147Z,9.9
2017-08-23T03:16:57.206Z,10
2017-08-23T03:17:59.233Z,10
2017-08-23T03:19:01.619Z,10.1
2017-08-23T03:20:03.714Z,10
2017-08-23T03:21:05.788Z,10
2017-08-23T03:22:07.827Z,10
2017-08-23T03:23:09.903Z,10
2017-08-23T03:24:12.288Z,10.1
2017-08-23T03:25:14.439Z,10
2017-08-23T03:26:16.514Z,9.9
2017-08-23T03:27:18.586Z,10
2017-08-23T03:28:20.692Z,10.1
2017-08-23T03:29:23.097Z,10.2
2017-08-23T03:30:25.188Z,10.1
2017-08-23T03:31:27.279Z,10
2017-08-23T03:32:29.333Z,9.9
2017-08-23T03:33:31.407Z,10
2017-08-23T03:34:33.872Z,10.1
2017-08-23T03:35:36.019Z,10
2017-08-23T03:36:38.238Z,9.9
2017-08-23T03:37:40.536Z,9.9
2017-08-23T03:38:42.658Z,9.9
2017-08-23T03:39:45.002Z,9.7
2017-08-23T03:40:47.120Z,9.8
2017-08-23T03:41:49.223Z,9.7
2017-08-23T03:42:51.293Z,9.7
2017-08-23T03:43:53.311Z,9.9
2017-08-23T03:44:55.772Z,9.9
2017-08-23T03:45:57.993Z,10
2017-08-23T03:47:00.159Z,10
2017-08-23T03:48:02.266Z,9.9
2017-08-23T03:49:04.354Z,9.9
2017-08-23T03:50:06.766Z,9.9
2017-08-23T03:51:08.848Z,9.9
2017-08-23T03:52:11.002Z,9.9
2017-08-23T03:53:13.104Z,9.8
2017-08-23T03:54:15.183Z,9.9
2017-08-23T03:55:17.748Z,9.9
2017-08-23T03:56:19.811Z,10
2017-08-23T03:57:21.958Z,10.1
2017-08-23T03:58:24.005Z,10
2017-08-23T03:59:26.095Z,10
2017-08-23T04:00:28.641Z,10
2017-08-23T04:01:30.842Z,9.8
2017-08-23T04:02:32.985Z,9.8
2017-08-23T04:03:34.993Z,9.7
2017-08-23T04:04:37.060Z,9.8
2017-08-23T04:05:39.532Z,9.8
2017-08-23T04:06:41.660Z,9.8
2017-08-23T04:07:43.773Z,9.9
2017-08-23T04:08:45.894Z,9.8
2017-08-23T04:09:48.016Z,9.8
2017-08-23T04:10:50.487Z,9.9
2017-08-23T04:11:52.619Z,9.8
2017-08-23T04:12:54.731Z,9.8
2017-08-23T04:13:56.792Z,9.7
2017-08-23T04:14:58.924Z,9.7
2017-08-23T04:16:01.231Z,9.8
2017-08-23T04:17:03.460Z,9.7
2017-08-23T04:18:05.559Z,9.8
2017-08-23T04:19:07.938Z,10.1
2017-08-23T04:20:09.995Z,9.9
2017-08-23T04:21:12.476Z,9.8
2017-08-23T04:22:14.598Z,9.9
2017-08-23T04:23:16.682Z,9.9
2017-08-23T04:24:18.728Z,9.9
2017-08-23T04:25:20.859Z,9.8
2017-08-23T04:26:23.185Z,9.7
2017-08-23T04:27:25.359Z,9.7
2017-08-23T04:28:27.589Z,9.8
2017-08-23T04:29:29.749Z,9.8
2017-08-23T04:30:31.833Z,9.8
2017-08-23T04:31:34.330Z,9.8
2017-08-23T04:32:36.412Z,9.7
2017-08-23T04:33:38.473Z,9.7
2017-08-23T04:34:40.593Z,9.7
2017-08-23T04:35:42.682Z,9.8
2017-08-23T04:36:45.166Z,9.8
2017-08-23T04:37:47.220Z,9.9
2017-08-23T04:38:49.325Z,9.8
2017-08-23T04:39:51.431Z,9.9
2017-08-23T04:40:53.480Z,9.9
2017-08-23T04:41:55.899Z,10
2017-08-23T04:42:58.000Z,9.9
2017-08-23T04:44:00.081Z,10.1
2017-08-23T04:45:02.145Z,10.3
2017-08-23T04:46:04.161Z,10.2
2017-08-23T04:47:06.590Z,10.1
2017-08-23T04:48:08.678Z,10.1
2017-08-23T04:49:10.703Z,10.1
2017-08-23T04:50:12.798Z,10.2
2017-08-23T04:51:14.860Z,10.3
2017-08-23T04:52:17.215Z,10.4
2017-08-23T04:53:19.275Z,10.4
2017-08-23T04:54:21.354Z,10.1
2017-08-23T04:55:23.413Z,9.9
2017-08-23T04:56:25.653Z,9.9
2017-08-23T04:57:28.051Z,9.8
2017-08-23T04:58:30.090Z,9.9
2017-08-23T04:59:32.122Z,10
2017-08-23T05:00:34.213Z,10.1
2017-08-23T05:01:36.290Z,10.1
2017-08-23T05:02:38.654Z,10.3
2017-08-23T05:03:40.752Z,10.3
2017-08-23T05:04:42.871Z,10.3
2017-08-23T05:05:45.016Z,10.3
2017-08-23T05:06:47.080Z,10.5
2017-08-23T05:07:49.408Z,10.5
2017-08-23T05:08:51.548Z,10.6
2017-08-23T05:09:53.655Z,10.7
2017-08-23T05:10:55.747Z,10.9
2017-08-23T05:11:57.790Z,10.8
2017-08-23T05:13:00.185Z,10.9
2017-08-23T05:14:02.280Z,10.8
2017-08-23T05:15:04.375Z,10.8
2017-08-23T05:16:06.438Z,10.9
2017-08-23T05:17:08.505Z,10.9
2017-08-23T05:18:10.944Z,10.9
2017-08-23T05:19:13.012Z,10.9
2017-08-23T05:20:15.239Z,11
2017-08-23T05:21:17.333Z,11.2
2017-08-23T05:22:19.445Z,11.4
2017-08-23T05:23:21.858Z,11.7
2017-08-23T05:24:23.963Z,11.8
2017-08-23T05:25:26.062Z,12.3
2017-08-23T05:26:28.157Z,12.4
2017-08-23T05:27:30.230Z,12.2
2017-08-23T05:28:32.761Z,12
2017-08-23T05:29:34.905Z,12
2017-08-23T05:30:37.060Z,12.1
2017-08-23T05:31:39.153Z,12.4
2017-08-23T05:32:41.303Z,12.3
2017-08-23T05:33:43.786Z,12.2
2017-08-23T05:34:46.033Z,12.3
2017-08-23T05:35:48.130Z,12.3
2017-08-23T05:36:50.280Z,12.5
2017-08-23T05:37:52.352Z,12.7
2017-08-23T05:38:54.816Z,13.1
2017-08-23T05:39:56.939Z,12.9
2017-08-23T05:40:59.125Z,12.7
2017-08-23T05:42:01.265Z,12.8
2017-08-23T05:43:03.383Z,12.9
2017-08-23T05:44:05.892Z,13.1
2017-08-23T05:45:07.975Z,13.1
2017-08-23T05:46:10.050Z,13.3
2017-08-23T05:47:12.159Z,13.3
2017-08-23T05:48:14.961Z,13.2
2017-08-23T05:49:17.316Z,13
2017-08-23T05:50:19.480Z,12.9
2017-08-23T05:51:21.667Z,13.2
2017-08-23T05:52:23.727Z,13.2
2017-08-23T05:53:25.817Z,13.3
2017-08-23T05:54:28.154Z,13.3
2017-08-23T05:55:30.227Z,13.4
2017-08-23T05:56:32.291Z,13.5
2017-08-23T05:57:34.358Z,13.7
2017-08-23T05:58:36.436Z,13.7
2017-08-23T05:59:38.830Z,13.8
2017-08-23T06:00:40.949Z,13.9
2017-08-23T06:01:43.090Z,14.1
2017-08-23T06:02:45.176Z,14.1
2017-08-23T06:03:47.261Z,13.8
2017-08-23T06:04:49.748Z,13.9
2017-08-23T06:05:51.861Z,13.8
2017-08-23T06:06:53.999Z,13.9
2017-08-23T06:07:56.078Z,14.2
2017-08-23T06:08:58.200Z,14.7
2017-08-23T06:10:00.721Z,14.7
2017-08-23T06:11:02.808Z,14.5
2017-08-23T06:12:04.951Z,14.5
2017-08-23T06:13:07.085Z,14.4
2017-08-23T06:14:09.166Z,14.6
2017-08-23T06:15:11.594Z,14.8
2017-08-23T06:16:13.723Z,15.3
2017-08-23T06:17:15.845Z,15.6
2017-08-23T06:18:18.126Z,15.8
2017-08-23T06:19:20.245Z,16
2017-08-23T06:20:22.696Z,16.6
2017-08-23T06:21:24.827Z,16.8
2017-08-23T06:22:26.866Z,17
2017-08-23T06:23:28.957Z,16.8
2017-08-23T06:24:31.099Z,16.7
2017-08-23T06:25:33.604Z,17
2017-08-23T06:26:35.659Z,17.1
2017-08-23T06:27:37.778Z,17.6
2017-08-23T06:28:39.890Z,17.9
2017-08-23T06:29:42.052Z,18.2
2017-08-23T06:30:44.478Z,18.3
2017-08-23T06:31:46.588Z,18.7
2017-08-23T06:32:48.669Z,19.1
2017-08-23T06:33:50.818Z,18.8
2017-08-23T06:34:52.925Z,18.3
2017-08-23T06:35:55.460Z,18.6
2017-08-23T06:36:57.606Z,19.2
2017-08-23T06:37:59.770Z,18.4
2017-08-23T06:39:01.870Z,18.2
2017-08-23T06:40:04.024Z,18
2017-08-23T06:41:06.502Z,18.4
2017-08-23T06:42:08.722Z,19
2017-08-23T06:43:10.822Z,18.3
2017-08-23T06:44:12.995Z,18.3
2017-08-23T06:45:15.267Z,18.9
2017-08-23T06:46:17.801Z,18.9
2017-08-23T06:47:20.021Z,18.9
2017-08-23T06:48:22.104Z,19
2017-08-23T06:49:24.240Z,18.8
2017-08-23T06:50:26.369Z,19.4
2017-08-23T06:51:28.734Z,19.1
2017-08-23T06:52:30.786Z,19.3
2017-08-23T06:53:32.918Z,19.1
2017-08-23T06:54:35.227Z,18.5
2017-08-23T06:55:37.381Z,18.9
2017-08-23T06:56:39.855Z,18.5
2017-08-23T06:57:42.029Z,18.2
2017-08-23T06:58:44.179Z,18.6
2017-08-23T06:59:46.270Z,19.5
2017-08-23T07:00:48.338Z,18.9
2017-08-23T07:01:50.741Z,18.4
2017-08-23T07:02:52.820Z,18.6
2017-08-23T07:03:54.917Z,19
2017-08-23T07:04:57.060Z,19.4
2017-08-23T07:05:59.194Z,19.6
2017-08-23T07:07:01.632Z,19.9
2017-08-23T07:08:03.772Z,19.2
2017-08-23T07:09:05.895Z,18.7
2017-08-23T07:10:07.980Z,18.4
2017-08-23T07:11:10.125Z,18.5
2017-08-23T07:12:12.550Z,18.4
2017-08-23T07:13:14.705Z,18.3
2017-08-23T07:14:16.880Z,18.5
2017-08-23T07:15:19.038Z,18.4
2017-08-23T07:16:21.225Z,18.5
2017-08-23T07:17:23.727Z,18.1
2017-08-23T07:18:25.843Z,18.8
2017-08-23T07:19:28.038Z,18.8
2017-08-23T07:20:30.159Z,19
2017-08-23T07:21:32.359Z,19.2
2017-08-23T07:22:34.794Z,19.9
2017-08-23T07:23:36.972Z,20.1
2017-08-23T07:24:39.110Z,19.8
2017-08-23T07:25:41.213Z,19.7
2017-08-23T07:26:43.301Z,19.8
2017-08-23T07:27:45.816Z,19.7
2017-08-23T07:28:47.973Z,19.3
2017-08-23T07:29:50.080Z,20.1
2017-08-23T07:30:52.256Z,19.9
2017-08-23T07:31:54.422Z,20.5
2017-08-23T07:32:56.850Z,20.1
2017-08-23T07:33:59.011Z,19.7
2017-08-23T07:35:01.293Z,19.5
2017-08-23T07:36:03.424Z,19.4
2017-08-23T07:37:05.560Z,19.2
2017-08-23T07:38:07.932Z,20.4
2017-08-23T07:39:10.617Z,20.1
2017-08-23T07:40:13.217Z,18.9
2017-08-23T07:41:15.933Z,18.9
2017-08-23T07:42:18.024Z,19.4
2017-08-23T07:43:20.397Z,19.4
2017-08-23T07:44:22.727Z,20.3
2017-08-23T07:45:25.032Z,20.3
2017-08-23T07:46:27.385Z,19.4
2017-08-23T07:47:29.477Z,19.9
2017-08-23T07:48:31.852Z,20.3
2017-08-23T07:49:34.037Z,21.2
2017-08-23T07:50:36.274Z,21.4
2017-08-23T07:51:38.569Z,21.4
2017-08-23T07:52:40.784Z,21.5
2017-08-23T07:53:43.161Z,20.7
2017-08-23T07:54:45.347Z,20.4
2017-08-23T07:55:47.506Z,21
2017-08-23T07:56:49.586Z,20.6
2017-08-23T07:57:51.741Z,20.5
2017-08-23T07:58:54.476Z,21
2017-08-23T07:59:56.750Z,21.4
2017-08-23T08:00:58.847Z,21.4
2017-08-23T08:02:01.072Z,22
2017-08-23T08:03:03.268Z,21.8
2017-08-23T08:04:05.713Z,22
2017-08-23T08:05:07.930Z,21.7
2017-08-23T08:06:10.086Z,22
2017-08-23T08:07:12.258Z,22.1
2017-08-23T08:08:14.493Z,22
2017-08-23T08:09:17.037Z,22.8
2017-08-23T08:10:19.232Z,21.7
2017-08-23T08:11:21.311Z,21.6
2017-08-23T08:12:23.385Z,22.9
2017-08-23T08:13:25.557Z,22.7
2017-08-23T08:14:28.041Z,22.5
2017-08-23T08:15:30.313Z,23.1
2017-08-23T08:16:32.438Z,23
2017-08-23T08:17:34.554Z,22.8
2017-08-23T08:18:36.605Z,22.7
2017-08-23T08:19:39.124Z,22.7
2017-08-23T08:20:41.244Z,23.4
2017-08-23T08:21:43.355Z,23.2
2017-08-23T08:22:45.563Z,23.1
2017-08-23T08:23:47.798Z,22.4
2017-08-23T08:24:50.202Z,22.4
2017-08-23T08:25:52.334Z,22.5
2017-08-23T08:26:54.505Z,21.9
2017-08-23T08:27:56.907Z,22
2017-08-23T08:28:59.008Z,23.7
2017-08-23T08:30:01.466Z,23.6
2017-08-23T08:31:03.618Z,23.4
2017-08-23T08:32:05.803Z,23.4
2017-08-23T08:33:07.983Z,23.6
2017-08-23T08:34:10.107Z,23.5
2017-08-23T08:35:12.583Z,23.6
2017-08-23T08:36:14.742Z,23
2017-08-23T08:37:16.823Z,23
2017-08-23T08:38:18.914Z,22.5
2017-08-23T08:39:21.083Z,22
2017-08-23T08:40:23.645Z,22.7
2017-08-23T08:41:25.725Z,23.4
2017-08-23T08:42:27.853Z,23.2
2017-08-23T08:43:29.897Z,23.7
2017-08-23T08:44:32.049Z,22.6
2017-08-23T08:45:34.507Z,23.1
2017-08-23T08:46:36.575Z,23.6
2017-08-23T08:47:38.676Z,22.8
2017-08-23T08:48:40.784Z,23.4
2017-08-23T08:49:42.954Z,23.8
2017-08-23T08:50:45.665Z,23
2017-08-23T08:51:47.835Z,24.2
2017-08-23T08:52:50.021Z,24
2017-08-23T08:53:52.892Z,23.5
2017-08-23T08:54:55.049Z,23.3
2017-08-23T08:55:57.629Z,23.2
2017-08-23T08:56:59.768Z,23.5
2017-08-23T08:58:01.980Z,22.6
2017-08-23T08:59:04.061Z,23
2017-08-23T09:00:06.227Z,23.4
2017-08-23T09:01:08.716Z,23.4
2017-08-23T09:02:10.825Z,24.8
2017-08-23T09:03:12.994Z,25.1
2017-08-23T09:04:15.052Z,24.3
2017-08-23T09:05:17.163Z,23.9
2017-08-23T09:06:19.667Z,23.8
2017-08-23T09:07:21.747Z,24.3
2017-08-23T09:08:23.924Z,23.7
2017-08-23T09:09:25.968Z,23.8
2017-08-23T09:10:28.134Z,23.6
2017-08-23T09:11:30.565Z,24.1
2017-08-23T09:12:32.711Z,24.3
2017-08-23T09:13:34.798Z,24.7
2017-08-23T09:14:36.890Z,24.9
2017-08-23T09:15:38.957Z,25.7
2017-08-23T09:16:41.453Z,25.1
2017-08-23T09:17:43.689Z,25.3
2017-08-23T09:18:45.795Z,27
2017-08-23T09:19:47.970Z,28.1
2017-08-23T09:20:50.025Z,28.7
2017-08-23T09:21:52.509Z,28.8
2017-08-23T09:22:54.621Z,27.3
2017-08-23T09:23:56.774Z,26.9
2017-08-23T09:24:58.958Z,26.6
2017-08-23T09:26:01.055Z,26.4
2017-08-23T09:27:03.543Z,26.4
2017-08-23T09:28:05.645Z,27.4
2017-08-23T09:29:07.815Z,27.9
2017-08-23T09:30:10.011Z,28.2
2017-08-23T09:31:12.153Z,26.5
2017-08-23T09:32:14.695Z,27.3
2017-08-23T09:33:17.003Z,28.6
2017-08-23T09:34:19.141Z,27.3
2017-08-23T09:35:21.434Z,27.5
2017-08-23T09:36:23.605Z,28.4
2017-08-23T09:37:26.107Z,26.7
2017-08-23T09:38:28.267Z,27.4
2017-08-23T09:39:30.360Z,28
2017-08-23T09:40:32.416Z,28.1
2017-08-23T09:41:34.505Z,27.2
2017-08-23T09:42:36.931Z,28.3
2017-08-23T09:43:39.004Z,27.5
2017-08-23T09:44:41.089Z,27.3
2017-08-23T09:45:43.174Z,27.6
2017-08-23T09:46:45.446Z,29.7
2017-08-23T09:47:47.810Z,28.3
2017-08-23T09:48:50.073Z,29.1
2017-08-23T09:49:52.114Z,29.1
2017-08-23T09:50:54.161Z,29.8
2017-08-23T09:51:56.356Z,29.5
2017-08-23T09:52:59.451Z,30.1
2017-08-23T09:54:01.571Z,29.5
2017-08-23T09:55:03.763Z,29.8
2017-08-23T09:56:05.822Z,29.8
2017-08-23T09:57:07.956Z,28.7
2017-08-23T09:58:10.459Z,29.3
2017-08-23T09:59:12.515Z,28.4
2017-08-23T10:00:14.640Z,28.8
2017-08-23T10:01:16.758Z,28.2
2017-08-23T10:02:18.886Z,30.1
2017-08-23T10:03:21.341Z,30
2017-08-23T10:04:23.410Z,29.5
2017-08-23T10:05:25.455Z,29.9
2017-08-23T10:06:27.515Z,30
2017-08-23T10:07:29.625Z,31.1
2017-08-23T10:08:32.096Z,31.6
2017-08-23T10:09:34.226Z,30
2017-08-23T10:10:36.323Z,30.5
2017-08-23T10:11:38.385Z,29.6
2017-08-23T10:12:40.432Z,29.5
2017-08-23T10:13:43.113Z,28.8
2017-08-23T10:14:45.268Z,29.4
2017-08-23T10:15:47.335Z,30.6
2017-08-23T10:16:49.425Z,29.9
2017-08-23T10:17:51.502Z,28.4
2017-08-23T10:18:53.908Z,28.3
2017-08-23T10:19:56.015Z,27.2
2017-08-23T10:20:58.122Z,28.5
2017-08-23T10:22:00.244Z,28.7
2017-08-23T10:23:02.426Z,28.6
2017-08-23T10:24:04.889Z,27.3
2017-08-23T10:25:06.992Z,25.8
2017-08-23T10:26:09.130Z,25.4
2017-08-23T10:27:11.252Z,25.1
2017-08-23T10:28:13.356Z,25.3
2017-08-23T10:29:15.812Z,25.5
2017-08-23T10:30:17.956Z,24.9
2017-08-23T10:31:19.987Z,24.1
2017-08-23T10:32:22.125Z,24.9
2017-08-23T10:33:24.201Z,24.4
2017-08-23T10:34:26.626Z,23.9
2017-08-23T10:35:28.865Z,23.8
2017-08-23T10:36:31.038Z,23.9
2017-08-23T10:37:33.225Z,24.8
2017-08-23T10:38:35.360Z,25.3
2017-08-23T10:39:37.769Z,25.5
2017-08-23T10:40:39.943Z,25.5
2017-08-23T10:41:42.215Z,24.4
2017-08-23T10:42:44.517Z,24.8
2017-08-23T10:43:46.765Z,24
2017-08-23T10:44:49.316Z,24.6
2017-08-23T10:45:51.577Z,24.2
2017-08-23T10:46:53.774Z,24.1
2017-08-23T10:47:55.926Z,24.3
2017-08-23T10:48:58.022Z,24
2017-08-23T10:50:00.457Z,24.8
2017-08-23T10:51:02.538Z,25.4
2017-08-23T10:52:04.699Z,25.8
2017-08-23T10:53:06.842Z,25.9
2017-08-23T10:54:08.919Z,24.9
2017-08-23T10:55:11.364Z,25.4
2017-08-23T10:56:13.551Z,24.7
2017-08-23T10:57:15.707Z,24
2017-08-23T10:58:17.786Z,24
2017-08-23T10:59:19.946Z,24.4
2017-08-23T11:00:22.344Z,25.4
2017-08-23T11:01:24.450Z,24.5
2017-08-23T11:02:26.575Z,24.5
2017-08-23T11:03:28.720Z,25
2017-08-23T11:04:30.814Z,25.4
2017-08-23T11:05:33.204Z,25.5
2017-08-23T11:06:35.273Z,24.6
2017-08-23T11:07:37.417Z,24.8
2017-08-23T11:08:39.502Z,24.7
2017-08-23T11:09:41.568Z,25.1
2017-08-23T11:10:44.026Z,25.5
2017-08-23T11:11:46.100Z,25.4
2017-08-23T11:12:48.206Z,25.2
2017-08-23T11:13:50.241Z,25.5
2017-08-23T11:14:52.333Z,25.6
2017-08-23T11:15:54.769Z,25.9
2017-08-23T11:16:56.865Z,25.6
2017-08-23T11:17:58.949Z,25.4
2017-08-23T11:19:01.046Z,25.3
2017-08-23T11:20:03.074Z,25
2017-08-23T11:21:05.657Z,25.1
2017-08-23T11:22:07.736Z,25.8
2017-08-23T11:23:09.887Z,25.2
2017-08-23T11:24:11.998Z,24.9
2017-08-23T11:25:14.310Z,24.7
2017-08-23T11:26:16.760Z,23.7
2017-08-23T11:27:18.930Z,24
2017-08-23T11:28:21.002Z,25
2017-08-23T11:29:23.244Z,25.1
2017-08-23T11:30:25.579Z,25.4
2017-08-23T11:31:28.058Z,25.5
2017-08-23T11:32:30.288Z,25.7
2017-08-23T11:33:32.451Z,25
2017-08-23T11:34:34.602Z,24.5
2017-08-23T11:35:36.748Z,25.2
2017-08-23T11:36:39.236Z,25.7
2017-08-23T11:37:41.341Z,25.5
2017-08-23T11:38:43.529Z,26
2017-08-23T11:39:45.725Z,26.6
2017-08-23T11:40:47.980Z,26.8
2017-08-23T11:41:50.735Z,26.9
2017-08-23T11:42:52.891Z,25.4
2017-08-23T11:43:55.156Z,25.3
2017-08-23T11:44:57.611Z,26.1
2017-08-23T11:45:59.784Z,25.5
2017-08-23T11:47:02.160Z,25.5
2017-08-23T11:48:04.310Z,25.9
2017-08-23T11:49:06.540Z,26.2
2017-08-23T11:50:08.771Z,25.7
2017-08-23T11:51:10.857Z,25
2017-08-23T11:52:13.305Z,24.6
2017-08-23T11:53:15.475Z,24.1
2017-08-23T11:54:17.568Z,24.5
2017-08-23T11:55:19.728Z,24.2
2017-08-23T11:56:21.868Z,24.8
2017-08-23T11:57:24.346Z,25.1
2017-08-23T11:58:26.453Z,25.4
2017-08-23T11:59:28.605Z,25.3
2017-08-23T12:00:30.672Z,25.2
2017-08-23T12:01:32.791Z,25.3
2017-08-23T12:02:35.195Z,25.1
2017-08-23T12:03:37.343Z,25.8
2017-08-23T12:04:39.678Z,25.6
2017-08-23T12:05:41.834Z,25.9
2017-08-23T12:06:44.024Z,26.6
2017-08-23T12:07:46.425Z,25.9
2017-08-23T12:08:48.466Z,25
2017-08-23T12:09:50.580Z,24.5
2017-08-23T12:10:53.075Z,24.2
2017-08-23T12:11:55.197Z,24.6
2017-08-23T12:12:57.592Z,24.9
2017-08-23T12:13:59.715Z,24.9
2017-08-23T12:15:02.294Z,24.6
2017-08-23T12:16:04.429Z,24.4
2017-08-23T12:17:06.654Z,24.4
2017-08-23T12:18:09.124Z,25
2017-08-23T12:19:11.191Z,25.5
2017-08-23T12:20:13.316Z,25.5
2017-08-23T12:21:15.435Z,25
2017-08-23T12:22:17.559Z,24.8
2017-08-23T12:23:19.977Z,25
2017-08-23T12:24:22.088Z,25
2017-08-23T12:25:24.191Z,25.3
2017-08-23T12:26:26.423Z,25.4
2017-08-23T12:27:28.558Z,25.4
2017-08-23T12:28:31.033Z,26
2017-08-23T12:29:33.371Z,25.5
2017-08-23T12:30:35.531Z,24.9
2017-08-23T12:31:38.057Z,24.9
2017-08-23T12:32:40.207Z,25
2017-08-23T12:33:42.701Z,24.8
2017-08-23T12:34:44.908Z,24.7
2017-08-23T12:35:47.685Z,24.8
2017-08-23T12:36:49.770Z,24.8
2017-08-23T12:37:51.851Z,25.1
2017-08-23T12:38:54.274Z,24.5
2017-08-23T12:39:56.435Z,24.5
2017-08-23T12:40:58.548Z,24.7
2017-08-23T12:42:00.714Z,24.9
2017-08-23T12:43:02.809Z,24.7
2017-08-23T12:44:05.329Z,24.5
2017-08-23T12:45:07.520Z,24.4
2017-08-23T12:46:10.320Z,24.5
2017-08-23T12:47:12.425Z,24.4
2017-08-23T12:48:14.520Z,25
2017-08-23T12:49:16.884Z,24.8
2017-08-23T12:50:18.981Z,24.9
2017-08-23T12:51:21.091Z,25.3
2017-08-23T12:52:23.159Z,25.7
2017-08-23T12:53:25.285Z,25.6
2017-08-23T12:54:27.669Z,25
2017-08-23T12:55:29.788Z,25.5
2017-08-23T12:56:31.894Z,25.8
2017-08-23T12:57:34.068Z,25.6
2017-08-23T12:58:36.370Z,26.1
2017-08-23T12:59:38.814Z,26.5
2017-08-23T13:00:40.972Z,26.8
2017-08-23T13:01:43.090Z,26.1
2017-08-23T13:02:45.205Z,26.2
2017-08-23T13:03:47.273Z,26.5
2017-08-23T13:04:49.692Z,26.3
2017-08-23T13:05:51.876Z,26.3
2017-08-23T13:06:53.981Z,26.4
2017-08-23T13:07:56.081Z,25.8
2017-08-23T13:08:58.226Z,25.4
2017-08-23T13:10:00.684Z,24.7
2017-08-23T13:11:02.821Z,24.3
2017-08-23T13:12:04.919Z,24.3
2017-08-23T13:13:07.092Z,24.6
2017-08-23T13:14:09.271Z,25
2017-08-23T13:15:11.676Z,24.8
2017-08-23T13:16:13.723Z,25.2
2017-08-23T13:17:15.826Z,25.6
2017-08-23T13:18:17.960Z,25.8
2017-08-23T13:19:20.050Z,25.9
2017-08-23T13:20:22.496Z,25.5
2017-08-23T13:21:24.693Z,25.5
2017-08-23T13:22:26.898Z,25.6
2017-08-23T13:23:29.830Z,25.5
2017-08-23T13:24:32.024Z,25.2
2017-08-23T13:25:34.561Z,25.5
2017-08-23T13:26:36.708Z,25.7
2017-08-23T13:27:38.755Z,25.9
2017-08-23T13:28:40.907Z,25.9
2017-08-23T13:29:42.952Z,25.7
2017-08-23T13:30:45.390Z,25.5
2017-08-23T13:31:47.484Z,25.6
2017-08-23T13:32:49.647Z,25.4
2017-08-23T13:33:51.772Z,25.2
2017-08-23T13:34:53.943Z,25.2
2017-08-23T13:35:56.355Z,25
2017-08-23T13:36:58.412Z,25
2017-08-23T13:38:00.489Z,24.9
2017-08-23T13:39:02.610Z,24.9
2017-08-23T13:40:04.735Z,25
2017-08-23T13:41:07.142Z,25
2017-08-23T13:42:09.422Z,24.8
2017-08-23T13:43:11.483Z,24.7
2017-08-23T13:44:18.034Z,24.7
2017-08-23T13:45:21.313Z,24.4
2017-08-23T13:46:23.666Z,24.6
2017-08-23T13:47:25.795Z,24.6
2017-08-23T13:48:27.918Z,24.6
2017-08-23T13:49:29.967Z,24.5
2017-08-23T13:50:32.083Z,24.6
2017-08-23T13:51:34.605Z,24.7
2017-08-23T13:52:36.636Z,24.5
2017-08-23T13:53:38.745Z,24.3
2017-08-23T13:54:40.946Z,24.4
2017-08-23T13:55:43.244Z,24.5
2017-08-23T13:56:45.722Z,24.5
2017-08-23T13:57:47.807Z,24.6